| time (UTC) | temp F | wind direction | speed knots | gust knots | rain 1hr in | rain 24hr in | rain mn in | humidity % | barometer mb |
| 20260504214810 | 61 | 217 | 0.9 | 1.7 | 0.00 | 0.00 | 0.00 | 78 | 1018.4 |
| 20260504214303 | 61 | 219 | 0.9 | 1.7 | 0.00 | 0.00 | 0.00 | 78 | 1018.4 |
| 20260504213115 | 61 | 227 | 0.9 | 1.7 | 0.00 | 0.00 | 0.00 | 77 | 1018.5 |
| 20260504212624 | 61 | 231 | 0.9 | 1.7 | 0.00 | 0.00 | 0.00 | 77 | 1018.5 |
| 20260504212117 | 61 | 229 | 1.7 | 2.6 | 0.00 | 0.00 | 0.00 | 77 | 1018.4 |
| 20260504211610 | 61 | 229 | 1.7 | 2.6 | 0.00 | 0.00 | 0.00 | 77 | 1018.4 |
| 20260504211059 | 61 | 228 | 0.9 | 2.6 | 0.00 | 0.00 | 0.00 | 77 | 1018.6 |
| 20260504210549 | 61 | 229 | 0.9 | 2.6 | 0.00 | 0.00 | 0.00 | 77 | 1018.6 |
| 20260504210044 | 61 | 231 | 0.9 | 1.7 | 0.00 | 0.00 | 0.00 | 77 | 1018.5 |
| 20260504204302 | 61 | 226 | 0.9 | 2.6 | 0.00 | 0.00 | 0.00 | 78 | 1018.6 |
| 20260504203803 | 61 | 226 | 0.9 | 2.6 | 0.00 | 0.00 | 0.00 | 77 | 1018.5 |
| 20260504203244 | 61 | 227 | 0.9 | 2.6 | 0.00 | 0.00 | 0.00 | 78 | 1018.6 |
| 20260504202139 | 61 | 229 | 0.9 | 1.7 | 0.00 | 0.00 | 0.00 | 77 | 1018.6 |
| 20260504195720 | 61 | 233 | 0.9 | 2.6 | 0.00 | 0.00 | 0.00 | 77 | 1018.5 |
| 20260504195229 | 61 | 233 | 0.9 | 2.6 | 0.00 | 0.00 | 0.00 | 76 | 1018.4 |
| 20260504194709 | 61 | 233 | 0.9 | 2.6 | 0.00 | 0.00 | 0.00 | 76 | 1018.5 |
| 20260504193551 | 62 | 234 | 0.9 | 1.7 | 0.00 | 0.00 | 0.00 | 74 | 1018.5 |
| 20260504193035 | 62 | 234 | 0.0 | 1.7 | 0.00 | 0.00 | 0.00 | 73 | 1018.4 |
| 20260504192541 | 63 | 289 | 0.0 | 1.7 | 0.00 | 0.00 | 0.00 | 73 | 1018.3 |
| 20260504192042 | 63 | 290 | 0.0 | 0.0 | 0.00 | 0.00 | 0.00 | 72 | 1018.2 |
| 20260504191533 | 63 | 291 | 0.0 | 2.6 | 0.00 | 0.00 | 0.00 | 73 | 1018.3 |
| 20260504191041 | 63 | 290 | 0.9 | 2.6 | 0.00 | 0.00 | 0.00 | 73 | 1018.2 |
| 20260504190543 | 63 | 291 | 0.9 | 2.6 | 0.00 | 0.00 | 0.00 | 73 | 1018.2 |
| 20260504190032 | 63 | 279 | 0.9 | 4.3 | 0.00 | 0.00 | 0.00 | 73 | 1018.2 |
| 20260504184844 | 63 | 279 | 1.7 | 4.3 | 0.00 | 0.00 | 0.00 | 73 | 1018.3 |
| 20260504184334 | 63 | 277 | 0.9 | 4.3 | 0.00 | 0.00 | 0.00 | 73 | 1018.2 |
| 20260504183835 | 64 | 290 | 0.9 | 1.7 | 0.00 | 0.00 | 0.00 | 74 | 1018.2 |
| 20260504183315 | 64 | 261 | 1.7 | 5.2 | 0.00 | 0.00 | 0.00 | 74 | 1018.2 |
| 20260504182209 | 64 | 282 | 2.6 | 7.0 | 0.00 | 0.00 | 0.00 | 73 | 1018.2 |
| 20260504181656 | 64 | 259 | 3.5 | 9.6 | 0.00 | 0.00 | 0.00 | 73 | 1018.1 |
| 20260504181137 | 64 | 287 | 4.3 | 9.6 | 0.00 | 0.00 | 0.00 | 72 | 1018.0 |
| 20260504180006 | 64 | 271 | 5.2 | 9.6 | 0.00 | 0.00 | 0.00 | 74 | 1017.9 |
| 20260504175456 | 65 | 325 | 4.3 | 8.7 | 0.00 | 0.00 | 0.00 | 75 | 1018.0 |
| 20260504175001 | 65 | 313 | 4.3 | 8.7 | 0.00 | 0.00 | 0.00 | 74 | 1018.0 |
| 20260504174445 | 65 | 285 | 4.3 | 8.7 | 0.00 | 0.00 | 0.00 | 74 | 1018.0 |
| 20260504173316 | 65 | 257 | 4.3 | 8.7 | 0.00 | 0.00 | 0.00 | 71 | 1018.0 |
| 20260504172806 | 65 | 288 | 4.3 | 8.7 | 0.00 | 0.00 | 0.00 | 71 | 1018.0 |
| 20260504172307 | 65 | 295 | 6.1 | 11.3 | 0.00 | 0.00 | 0.00 | 73 | 1017.9 |
| 20260504171800 | 65 | 306 | 7.0 | 11.3 | 0.00 | 0.00 | 0.00 | 74 | 1017.8 |
| 20260504171251 | 65 | 304 | 7.0 | 11.3 | 0.00 | 0.00 | 0.00 | 73 | 1017.9 |
| 20260504170756 | 65 | 296 | 6.1 | 11.3 | 0.00 | 0.00 | 0.00 | 74 | 1018.1 |
| 20260504150722 | 65 | 340 | 1.7 | 3.5 | 0.00 | 0.00 | 0.00 | 75 | 1018.5 |
| 20260504150214 | 65 | 33 | 0.9 | 2.6 | 0.00 | 0.00 | 0.00 | 74 | 1018.6 |
| 20260504141010 | 67 | 119 | 0.9 | 3.5 | 0.00 | 0.00 | 0.00 | 76 | 1018.5 |
| 20260504140515 | 66 | 144 | 0.9 | 6.1 | 0.00 | 0.00 | 0.00 | 77 | 1018.5 |
| 20260504130632 | 65 | 346 | 4.3 | 10.4 | 0.00 | 0.00 | 0.00 | 74 | 1019.4 |
| 20260504130140 | 65 | 15 | 4.3 | 7.0 | 0.00 | 0.00 | 0.00 | 75 | 1019.5 |
| 20260504120257 | 64 | 337 | 1.7 | 4.3 | 0.00 | 0.00 | 0.00 | 80 | 1019.8 |
| 20260504081844 | 65 | 72 | 0.9 | 2.6 | 0.00 | 0.00 | 0.00 | 79 | 1020.3 |
| 20260504081348 | 65 | 71 | 0.9 | 2.6 | 0.00 | 0.00 | 0.00 | 80 | 1020.5 |
| 20260504080837 | 65 | 71 | 0.9 | 2.6 | 0.00 | 0.00 | 0.00 | 81 | 1020.6 |
| 20260504080330 | 65 | 97 | 0.0 | 1.7 | 0.00 | 0.00 | 0.00 | 80 | 1020.6 |
| 20260504045832 | 59 | 198 | 0.9 | 2.6 | 0.00 | 0.00 | 0.00 | 89 | 1019.5 |
| 20260504045331 | 58 | 200 | 0.9 | 3.5 | 0.00 | 0.00 | 0.00 | 88 | 1019.4 |
| 20260504044814 | 58 | 197 | 1.7 | 3.5 | 0.00 | 0.00 | 0.00 | 88 | 1019.3 |
| 20260504044312 | 58 | 189 | 1.7 | 3.5 | 0.00 | 0.00 | 0.00 | 89 | 1019.2 |
| 20260504043801 | 57 | 209 | 1.7 | 3.5 | 0.00 | 0.00 | 0.00 | 89 | 1019.1 |
| 20260504043309 | 57 | 213 | 1.7 | 4.3 | 0.00 | 0.00 | 0.00 | 89 | 1019.1 |
| 20260504042802 | 56 | 188 | 1.7 | 4.3 | 0.00 | 0.00 | 0.00 | 88 | 1019.0 |
| 20260504042251 | 56 | 209 | 2.6 | 4.3 | 0.00 | 0.00 | 0.00 | 88 | 1018.9 |
| 20260504041740 | 56 | 232 | 2.6 | 4.3 | 0.00 | 0.00 | 0.00 | 88 | 1018.9 |
| 20260504041223 | 56 | 238 | 2.6 | 4.3 | 0.00 | 0.00 | 0.00 | 88 | 1018.9 |
| 20260504040729 | 56 | 214 | 2.6 | 4.3 | 0.00 | 0.00 | 0.00 | 88 | 1018.9 |
| 20260504035611 | 56 | 210 | 2.6 | 3.5 | 0.00 | 0.00 | 0.00 | 87 | 1018.9 |
| 20260504035053 | 56 | 211 | 1.7 | 3.5 | 0.00 | 0.00 | 0.00 | 87 | 1018.9 |
| 20260504034547 | 56 | 224 | 1.7 | 3.5 | 0.00 | 0.00 | 0.00 | 87 | 1018.8 |
| 20260504034042 | 56 | 209 | 1.7 | 3.5 | 0.00 | 0.00 | 0.00 | 87 | 1018.8 |
| 20260504033537 | 56 | 206 | 1.7 | 3.5 | 0.00 | 0.00 | 0.00 | 87 | 1018.9 |
| 20260504033042 | 56 | 211 | 2.6 | 3.5 | 0.00 | 0.00 | 0.00 | 86 | 1019.0 |
| 20260504031323 | 56 | 206 | 2.6 | 4.3 | 0.00 | 0.00 | 0.00 | 85 | 1019.1 |
| 20260504030820 | 56 | 191 | 1.7 | 4.3 | 0.00 | 0.00 | 0.00 | 85 | 1019.1 |
| 20260504030316 | 56 | 209 | 1.7 | 4.3 | 0.00 | 0.00 | 0.00 | 85 | 1019.1 |
| 20260504025757 | 56 | 207 | 2.6 | 3.5 | 0.00 | 0.00 | 0.00 | 85 | 1019.0 |
| 20260504025308 | 56 | 205 | 2.6 | 3.5 | 0.00 | 0.00 | 0.00 | 84 | 1019.1 |
| 20260504024759 | 57 | 205 | 1.7 | 3.5 | 0.00 | 0.00 | 0.00 | 84 | 1019.1 |
| 20260504024256 | 57 | 208 | 1.7 | 3.5 | 0.00 | 0.00 | 0.00 | 84 | 1019.1 |
| 20260504023141 | 57 | 207 | 1.7 | 3.5 | 0.00 | 0.00 | 0.00 | 84 | 1019.2 |
| 20260504022638 | 57 | 204 | 1.7 | 3.5 | 0.00 | 0.00 | 0.00 | 84 | 1019.2 |
| 20260504022148 | 57 | 209 | 1.7 | 4.3 | 0.00 | 0.00 | 0.00 | 84 | 1019.2 |
| 20260504021651 | 57 | 201 | 1.7 | 4.3 | 0.00 | 0.00 | 0.00 | 83 | 1019.3 |
| 20260504021140 | 57 | 210 | 1.7 | 4.3 | 0.00 | 0.00 | 0.00 | 83 | 1019.2 |
| 20260504020644 | 57 | 221 | 1.7 | 4.3 | 0.00 | 0.00 | 0.00 | 83 | 1019.2 |
| 20260504020147 | 57 | 213 | 1.7 | 3.5 | 0.00 | 0.00 | 0.00 | 83 | 1019.2 |
| 20260504015647 | 57 | 204 | 1.7 | 3.5 | 0.00 | 0.00 | 0.00 | 83 | 1019.3 |
| 20260504015133 | 57 | 207 | 1.7 | 3.5 | 0.00 | 0.00 | 0.00 | 82 | 1019.2 |
| 20260504013953 | 57 | 192 | 0.9 | 2.6 | 0.00 | 0.00 | 0.00 | 82 | 1019.1 |
| 20260504013445 | 57 | 196 | 0.9 | 2.6 | 0.00 | 0.00 | 0.00 | 82 | 1019.2 |
| 20260504011713 | 59 | 225 | 1.7 | 3.5 | 0.00 | 0.00 | 0.00 | 82 | 1019.3 |
| 20260504011203 | 59 | 213 | 1.7 | 2.6 | 0.00 | 0.00 | 0.00 | 82 | 1019.2 |
| 20260504010711 | 60 | 217 | 1.7 | 2.6 | 0.00 | 0.00 | 0.00 | 82 | 1019.1 |
| 20260504005548 | 60 | 234 | 0.9 | 2.6 | 0.00 | 0.00 | 0.00 | 82 | 1019.2 |
| 20260504005054 | 60 | 217 | 0.9 | 2.6 | 0.00 | 0.00 | 0.00 | 81 | 1019.3 |
| 20260504004559 | 60 | 214 | 0.9 | 2.6 | 0.00 | 0.00 | 0.00 | 81 | 1019.2 |
| 20260504004103 | 61 | 194 | 0.9 | 6.1 | 0.00 | 0.00 | 0.00 | 81 | 1019.3 |
| 20260504003554 | 62 | 250 | 0.9 | 6.1 | 0.00 | 0.00 | 0.00 | 82 | 1019.2 |
| 20260504003051 | 62 | 257 | 1.7 | 6.1 | 0.00 | 0.00 | 0.00 | 82 | 1019.2 |
| 20260504002559 | 62 | 282 | 1.7 | 6.1 | 0.00 | 0.00 | 0.00 | 82 | 1019.3 |
| 20260504002054 | 62 | 295 | 0.9 | 5.2 | 0.00 | 0.00 | 0.00 | 82 | 1019.3 |
| 20260504000911 | 61 | 215 | 0.9 | 5.2 | 0.00 | 0.00 | 0.00 | 81 | 1019.3 |
| 20260504000356 | 62 | 273 | 1.7 | 5.2 | 0.00 | 0.00 | 0.00 | 82 | 1019.4 |
| 20260503235905 | 61 | 275 | 1.7 | 5.2 | 0.00 | 0.00 | 0.00 | 82 | 1019.5 |
| 20260503235348 | 60 | 232 | 0.9 | 5.2 | 0.00 | 0.00 | 0.00 | 82 | 1019.4 |
| 20260503234841 | 60 | 213 | 0.9 | 2.6 | 0.00 | 0.00 | 0.00 | 80 | 1019.5 |
| 20260503234348 | 59 | 201 | 0.9 | 2.6 | 0.00 | 0.00 | 0.00 | 80 | 1019.4 |
| 20260503233846 | 59 | 204 | 0.9 | 1.7 | 0.00 | 0.00 | 0.00 | 79 | 1019.5 |
| 20260503233350 | 59 | 205 | 0.9 | 1.7 | 0.00 | 0.00 | 0.00 | 79 | 1019.5 |
| 20260503232843 | 59 | 192 | 0.9 | 2.6 | 0.00 | 0.00 | 0.00 | 78 | 1019.6 |
| 20260503232352 | 60 | 192 | 0.9 | 2.6 | 0.00 | 0.00 | 0.00 | 78 | 1019.5 |
| 20260503231848 | 60 | 209 | 0.9 | 5.2 | 0.00 | 0.00 | 0.00 | 78 | 1019.6 |
| 20260503231331 | 61 | 248 | 0.9 | 5.2 | 0.00 | 0.00 | 0.00 | 78 | 1019.5 |
| 20260503230814 | 62 | 248 | 0.9 | 5.2 | 0.00 | 0.00 | 0.00 | 80 | 1019.5 |
| 20260503230300 | 62 | 261 | 0.0 | 5.2 | 0.00 | 0.00 | 0.00 | 79 | 1019.5 |
| 20260503225140 | 63 | 267 | 2.6 | 6.1 | 0.00 | 0.00 | 0.00 | 80 | 1019.6 |
| 20260503224640 | 63 | 294 | 2.6 | 6.1 | 0.00 | 0.00 | 0.00 | 79 | 1019.7 |
| 20260503223509 | 63 | 286 | 0.9 | 5.2 | 0.00 | 0.00 | 0.00 | 79 | 1019.7 |
| 20260503223017 | 62 | 248 | 0.9 | 5.2 | 0.00 | 0.00 | 0.00 | 78 | 1019.6 |
| 20260503221857 | 63 | 282 | 1.7 | 7.0 | 0.00 | 0.00 | 0.00 | 78 | 1019.6 |
| 20260503221350 | 63 | 242 | 1.7 | 7.0 | 0.00 | 0.00 | 0.00 | 78 | 1019.6 |
| 20260503220852 | 63 | 280 | 2.6 | 7.0 | 0.00 | 0.00 | 0.00 | 78 | 1019.6 |
| 20260503215713 | 63 | 277 | 3.5 | 9.6 | 0.00 | 0.00 | 0.00 | 77 | 1019.5 |
| 20260503215209 | 63 | 263 | 4.3 | 9.6 | 0.00 | 0.00 | 0.00 | 77 | 1019.5 |